sensor_id;sensor_type;location;lat;lon;timestamp;pressure;altitude;pressure_sealevel;temperature;humidity
80624;BME280;70269;44.768;9.600;2024-03-22T00:00:21;97889.38;;;8.15;95.99
80624;BME280;70269;44.768;9.600;2024-03-22T00:02:47;97880.19;;;8.09;96.11
80624;BME280;70269;44.768;9.600;2024-03-22T00:05:13;97888.84;;;8.05;96.05
80624;BME280;70269;44.768;9.600;2024-03-22T00:07:38;97885.78;;;8.08;95.95
80624;BME280;70269;44.768;9.600;2024-03-22T00:10:05;97887.16;;;8.04;96.14
80624;BME280;70269;44.768;9.600;2024-03-22T00:12:31;97886.72;;;8.00;96.19
80624;BME280;70269;44.768;9.600;2024-03-22T00:14:57;97880.69;;;7.84;96.08
80624;BME280;70269;44.768;9.600;2024-03-22T00:17:23;97885.22;;;7.68;96.71
80624;BME280;70269;44.768;9.600;2024-03-22T00:19:48;97887.47;;;7.65;97.21
80624;BME280;70269;44.768;9.600;2024-03-22T00:22:14;97890.50;;;7.62;97.26
80624;BME280;70269;44.768;9.600;2024-03-22T00:24:41;97893.16;;;7.47;98.75
80624;BME280;70269;44.768;9.600;2024-03-22T00:27:06;97885.09;;;7.47;98.71
80624;BME280;70269;44.768;9.600;2024-03-22T00:29:32;97887.34;;;7.58;97.96
80624;BME280;70269;44.768;9.600;2024-03-22T00:31:57;97886.88;;;7.55;98.03
80624;BME280;70269;44.768;9.600;2024-03-22T00:34:23;97884.66;;;7.58;98.14
80624;BME280;70269;44.768;9.600;2024-03-22T00:36:49;97896.59;;;7.56;97.96
80624;BME280;70269;44.768;9.600;2024-03-22T00:39:16;97891.97;;;7.50;98.19
80624;BME280;70269;44.768;9.600;2024-03-22T00:41:42;97886.59;;;7.50;98.03
80624;BME280;70269;44.768;9.600;2024-03-22T00:44:07;97885.75;;;7.49;98.51
80624;BME280;70269;44.768;9.600;2024-03-22T00:46:33;97880.56;;;7.48;98.22
80624;BME280;70269;44.768;9.600;2024-03-22T00:48:58;97885.19;;;7.39;98.33
80624;BME280;70269;44.768;9.600;2024-03-22T00:51:25;97880.94;;;7.45;97.95
80624;BME280;70269;44.768;9.600;2024-03-22T00:53:51;97895.09;;;7.39;97.94
80624;BME280;70269;44.768;9.600;2024-03-22T00:56:17;97885.47;;;7.44;98.30
80624;BME280;70269;44.768;9.600;2024-03-22T00:58:42;97881.09;;;7.43;98.28
80624;BME280;70269;44.768;9.600;2024-03-22T01:01:08;97880.88;;;7.53;98.12
80624;BME280;70269;44.768;9.600;2024-03-22T01:03:33;97874.34;;;7.47;98.07
80624;BME280;70269;44.768;9.600;2024-03-22T01:05:59;97881.66;;;7.39;98.05
80624;BME280;70269;44.768;9.600;2024-03-22T01:08:25;97882.59;;;7.46;97.90
80624;BME280;70269;44.768;9.600;2024-03-22T01:10:51;97873.59;;;7.39;97.98
80624;BME280;70269;44.768;9.600;2024-03-22T01:13:16;97884.06;;;7.34;97.76
80624;BME280;70269;44.768;9.600;2024-03-22T01:15:42;97882.75;;;7.29;97.70
80624;BME280;70269;44.768;9.600;2024-03-22T01:18:08;97875.63;;;7.22;97.46
80624;BME280;70269;44.768;9.600;2024-03-22T01:20:34;97878.38;;;7.28;97.64
80624;BME280;70269;44.768;9.600;2024-03-22T01:23:00;97880.53;;;7.33;97.57
80624;BME280;70269;44.768;9.600;2024-03-22T01:25:30;97881.63;;;7.24;97.83
80624;BME280;70269;44.768;9.600;2024-03-22T01:27:56;97889.50;;;7.25;97.81
80624;BME280;70269;44.768;9.600;2024-03-22T01:30:22;97881.59;;;7.09;98.56
80624;BME280;70269;44.768;9.600;2024-03-22T01:32:49;97867.50;;;7.07;98.67
80624;BME280;70269;44.768;9.600;2024-03-22T01:35:14;97879.84;;;7.16;98.46
80624;BME280;70269;44.768;9.600;2024-03-22T01:37:40;97878.38;;;7.28;97.95
80624;BME280;70269;44.768;9.600;2024-03-22T01:40:08;97873.00;;;7.28;97.76
80624;BME280;70269;44.768;9.600;2024-03-22T01:42:33;97868.16;;;7.47;97.18
80624;BME280;70269;44.768;9.600;2024-03-22T01:44:59;97871.16;;;7.29;96.82
80624;BME280;70269;44.768;9.600;2024-03-22T01:47:25;97872.25;;;7.20;96.96
80624;BME280;70269;44.768;9.600;2024-03-22T01:49:52;97875.91;;;7.27;97.13
80624;BME280;70269;44.768;9.600;2024-03-22T01:52:19;97869.88;;;7.25;96.94
80624;BME280;70269;44.768;9.600;2024-03-22T01:54:44;97868.47;;;7.29;96.59
80624;BME280;70269;44.768;9.600;2024-03-22T01:57:10;97873.75;;;7.22;96.47
80624;BME280;70269;44.768;9.600;2024-03-22T01:59:36;97870.41;;;7.20;96.21
80624;BME280;70269;44.768;9.600;2024-03-22T02:02:02;97863.44;;;7.11;96.07
80624;BME280;70269;44.768;9.600;2024-03-22T02:04:28;97868.06;;;7.17;96.11
80624;BME280;70269;44.768;9.600;2024-03-22T02:06:54;97864.16;;;7.05;95.85
80624;BME280;70269;44.768;9.600;2024-03-22T02:09:19;97867.56;;;6.99;96.32
80624;BME280;70269;44.768;9.600;2024-03-22T02:11:46;97860.31;;;6.85;97.20
80624;BME280;70269;44.768;9.600;2024-03-22T02:14:12;97866.69;;;6.84;97.02
80624;BME280;70269;44.768;9.600;2024-03-22T02:16:40;97867.03;;;6.81;97.14
80624;BME280;70269;44.768;9.600;2024-03-22T02:19:06;97872.91;;;6.84;97.08
80624;BME280;70269;44.768;9.600;2024-03-22T02:21:32;97872.41;;;6.81;97.18
80624;BME280;70269;44.768;9.600;2024-03-22T02:23:57;97877.34;;;6.92;96.67
80624;BME280;70269;44.768;9.600;2024-03-22T02:26:23;97876.50;;;6.91;96.45
80624;BME280;70269;44.768;9.600;2024-03-22T02:28:49;97869.00;;;6.87;96.67
80624;BME280;70269;44.768;9.600;2024-03-22T02:31:14;97867.28;;;6.94;96.72
80624;BME280;70269;44.768;9.600;2024-03-22T02:33:40;97863.59;;;6.95;96.76
80624;BME280;70269;44.768;9.600;2024-03-22T02:36:06;97866.03;;;6.82;96.61
80624;BME280;70269;44.768;9.600;2024-03-22T02:38:31;97859.16;;;6.79;96.78
80624;BME280;70269;44.768;9.600;2024-03-22T02:40:57;97858.56;;;7.15;96.54
80624;BME280;70269;44.768;9.600;2024-03-22T02:43:23;97867.22;;;7.02;96.39
80624;BME280;70269;44.768;9.600;2024-03-22T02:45:49;97865.31;;;6.88;96.81
80624;BME280;70269;44.768;9.600;2024-03-22T02:48:15;97865.91;;;6.75;97.43
80624;BME280;70269;44.768;9.600;2024-03-22T02:50:41;97867.72;;;6.83;97.53
80624;BME280;70269;44.768;9.600;2024-03-22T02:53:06;97866.88;;;6.82;97.58
80624;BME280;70269;44.768;9.600;2024-03-22T02:55:41;97868.38;;;6.85;97.29
80624;BME280;70269;44.768;9.600;2024-03-22T02:58:08;97859.59;;;6.91;96.74
80624;BME280;70269;44.768;9.600;2024-03-22T03:00:37;97856.81;;;6.99;96.43
80624;BME280;70269;44.768;9.600;2024-03-22T03:03:06;97859.38;;;6.93;96.31
80624;BME280;70269;44.768;9.600;2024-03-22T03:05:32;97857.25;;;6.88;95.81
80624;BME280;70269;44.768;9.600;2024-03-22T03:07:58;97860.06;;;6.95;95.45
80624;BME280;70269;44.768;9.600;2024-03-22T03:10:24;97860.06;;;6.95;95.12
80624;BME280;70269;44.768;9.600;2024-03-22T03:12:50;97860.59;;;6.90;94.66
80624;BME280;70269;44.768;9.600;2024-03-22T03:15:17;97866.19;;;6.80;95.03
80624;BME280;70269;44.768;9.600;2024-03-22T03:17:42;97864.53;;;6.79;95.17
80624;BME280;70269;44.768;9.600;2024-03-22T03:20:08;97863.41;;;6.74;95.42
80624;BME280;70269;44.768;9.600;2024-03-22T03:22:36;97855.03;;;6.69;95.30
80624;BME280;70269;44.768;9.600;2024-03-22T03:25:03;97868.50;;;6.61;95.92
80624;BME280;70269;44.768;9.600;2024-03-22T03:27:30;97862.97;;;6.62;96.02
80624;BME280;70269;44.768;9.600;2024-03-22T03:29:55;97859.81;;;6.81;95.54
80624;BME280;70269;44.768;9.600;2024-03-22T03:32:21;97851.66;;;6.75;95.15
80624;BME280;70269;44.768;9.600;2024-03-22T03:34:46;97860.72;;;6.74;95.26
80624;BME280;70269;44.768;9.600;2024-03-22T03:37:12;97863.41;;;6.74;95.03
80624;BME280;70269;44.768;9.600;2024-03-22T03:39:38;97858.88;;;6.74;94.72
80624;BME280;70269;44.768;9.600;2024-03-22T03:42:04;97868.38;;;6.85;94.19
80624;BME280;70269;44.768;9.600;2024-03-22T03:44:29;97871.41;;;6.82;94.39
80624;BME280;70269;44.768;9.600;2024-03-22T03:46:55;97866.63;;;6.69;94.28
80624;BME280;70269;44.768;9.600;2024-03-22T03:49:20;97871.75;;;6.56;95.29
80624;BME280;70269;44.768;9.600;2024-03-22T03:51:46;97870.66;;;6.42;95.25
80624;BME280;70269;44.768;9.600;2024-03-22T03:54:11;97872.63;;;6.48;96.03
80624;BME280;70269;44.768;9.600;2024-03-22T03:56:37;97875.56;;;6.31;96.53
80624;BME280;70269;44.768;9.600;2024-03-22T03:59:03;97881.34;;;6.20;97.17
80624;BME280;70269;44.768;9.600;2024-03-22T04:01:28;97880.88;;;6.16;97.54
80624;BME280;70269;44.768;9.600;2024-03-22T04:03:54;97881.31;;;6.28;97.42
80624;BME280;70269;44.768;9.600;2024-03-22T04:06:20;97870.44;;;6.21;97.13
80624;BME280;70269;44.768;9.600;2024-03-22T04:08:45;97881.19;;;6.13;97.53
80624;BME280;70269;44.768;9.600;2024-03-22T04:11:11;97879.75;;;6.02;97.75
80624;BME280;70269;44.768;9.600;2024-03-22T04:13:37;97890.31;;;6.04;97.63
80624;BME280;70269;44.768;9.600;2024-03-22T04:16:03;97883.22;;;6.11;97.40
80624;BME280;70269;44.768;9.600;2024-03-22T04:18:28;97884.25;;;6.10;97.51
80624;BME280;70269;44.768;9.600;2024-03-22T04:20:58;97891.78;;;6.06;97.84
80624;BME280;70269;44.768;9.600;2024-03-22T04:23:24;97890.63;;;6.09;97.84
80624;BME280;70269;44.768;9.600;2024-03-22T04:26:00;97903.66;;;6.12;97.61
80624;BME280;70269;44.768;9.600;2024-03-22T04:28:27;97899.00;;;6.06;97.60
80624;BME280;70269;44.768;9.600;2024-03-22T04:30:57;97897.16;;;6.06;97.90
80624;BME280;70269;44.768;9.600;2024-03-22T04:33:23;97896.03;;;6.32;97.45
80624;BME280;70269;44.768;9.600;2024-03-22T04:35:49;97896.53;;;6.35;96.45
80624;BME280;70269;44.768;9.600;2024-03-22T04:38:14;97904.19;;;6.46;95.78
80624;BME280;70269;44.768;9.600;2024-03-22T04:40:40;97901.69;;;6.37;95.44
80624;BME280;70269;44.768;9.600;2024-03-22T04:43:06;97899.09;;;6.29;95.71
80624;BME280;70269;44.768;9.600;2024-03-22T04:45:32;97904.81;;;6.18;95.73
80624;BME280;70269;44.768;9.600;2024-03-22T04:47:57;97899.44;;;6.18;95.86
80624;BME280;70269;44.768;9.600;2024-03-22T04:50:23;97908.03;;;6.13;96.07
80624;BME280;70269;44.768;9.600;2024-03-22T04:52:49;97915.06;;;6.14;96.26
80624;BME280;70269;44.768;9.600;2024-03-22T04:55:14;97913.53;;;6.20;96.46
80624;BME280;70269;44.768;9.600;2024-03-22T04:57:40;97916.06;;;6.13;96.43
80624;BME280;70269;44.768;9.600;2024-03-22T05:00:06;97912.56;;;6.13;96.39
80624;BME280;70269;44.768;9.600;2024-03-22T05:02:34;97906.84;;;6.16;96.35
80624;BME280;70269;44.768;9.600;2024-03-22T05:05:00;97913.56;;;6.12;96.77
80624;BME280;70269;44.768;9.600;2024-03-22T05:07:25;97915.38;;;6.19;96.58
80624;BME280;70269;44.768;9.600;2024-03-22T05:09:51;97925.25;;;6.19;96.06
80624;BME280;70269;44.768;9.600;2024-03-22T05:12:17;97929.50;;;6.05;96.33
80624;BME280;70269;44.768;9.600;2024-03-22T05:14:42;97935.06;;;5.95;96.72
80624;BME280;70269;44.768;9.600;2024-03-22T05:17:08;97931.59;;;5.79;97.23
80624;BME280;70269;44.768;9.600;2024-03-22T05:19:33;97931.38;;;5.80;97.43
80624;BME280;70269;44.768;9.600;2024-03-22T05:21:59;97935.91;;;5.96;97.12
80624;BME280;70269;44.768;9.600;2024-03-22T05:24:26;97923.69;;;5.93;96.94
80624;BME280;70269;44.768;9.600;2024-03-22T05:26:51;97925.03;;;5.89;96.66
80624;BME280;70269;44.768;9.600;2024-03-22T05:29:17;97935.06;;;6.03;96.32
80624;BME280;70269;44.768;9.600;2024-03-22T05:31:47;97937.06;;;6.01;96.01
80624;BME280;70269;44.768;9.600;2024-03-22T05:34:14;97928.56;;;5.90;95.85
80624;BME280;70269;44.768;9.600;2024-03-22T05:36:42;97926.56;;;5.92;95.82
80624;BME280;70269;44.768;9.600;2024-03-22T05:39:08;97926.19;;;5.95;95.65
80624;BME280;70269;44.768;9.600;2024-03-22T05:41:36;97925.53;;;5.93;96.04
80624;BME280;70269;44.768;9.600;2024-03-22T05:44:01;97928.53;;;5.98;95.70
80624;BME280;70269;44.768;9.600;2024-03-22T05:46:29;97927.16;;;6.10;95.08
80624;BME280;70269;44.768;9.600;2024-03-22T05:48:56;97922.81;;;6.01;95.17
80624;BME280;70269;44.768;9.600;2024-03-22T05:51:21;97926.63;;;6.15;95.02
80624;BME280;70269;44.768;9.600;2024-03-22T05:53:47;97927.06;;;6.34;94.49
80624;BME280;70269;44.768;9.600;2024-03-22T05:56:12;97928.84;;;6.42;94.12
80624;BME280;70269;44.768;9.600;2024-03-22T05:58:38;97931.66;;;6.48;93.68
80624;BME280;70269;44.768;9.600;2024-03-22T06:01:04;97928.41;;;6.61;92.73
80624;BME280;70269;44.768;9.600;2024-03-22T06:03:30;97928.94;;;6.57;92.58
80624;BME280;70269;44.768;9.600;2024-03-22T06:05:55;97936.28;;;6.63;93.10
80624;BME280;70269;44.768;9.600;2024-03-22T06:08:25;97942.63;;;6.70;92.50
80624;BME280;70269;44.768;9.600;2024-03-22T06:10:52;97934.59;;;6.62;92.45
80624;BME280;70269;44.768;9.600;2024-03-22T06:13:18;97942.75;;;6.76;91.88
80624;BME280;70269;44.768;9.600;2024-03-22T06:15:44;97946.13;;;7.01;90.52
80624;BME280;70269;44.768;9.600;2024-03-22T06:18:12;97937.59;;;7.35;89.42
80624;BME280;70269;44.768;9.600;2024-03-22T06:20:38;97942.06;;;7.80;86.97
80624;BME280;70269;44.768;9.600;2024-03-22T06:23:03;97943.22;;;8.00;85.24
80624;BME280;70269;44.768;9.600;2024-03-22T06:25:29;97945.16;;;8.36;83.72
80624;BME280;70269;44.768;9.600;2024-03-22T06:27:55;97937.28;;;8.49;82.35
80624;BME280;70269;44.768;9.600;2024-03-22T06:30:20;97944.00;;;8.96;82.53
80624;BME280;70269;44.768;9.600;2024-03-22T06:32:46;97935.31;;;9.15;80.29
80624;BME280;70269;44.768;9.600;2024-03-22T06:35:12;97931.06;;;9.27;79.79
80624;BME280;70269;44.768;9.600;2024-03-22T06:37:39;97937.19;;;9.36;79.29
80624;BME280;70269;44.768;9.600;2024-03-22T06:40:06;97942.38;;;9.37;79.69
80624;BME280;70269;44.768;9.600;2024-03-22T06:42:32;97939.53;;;9.45;80.40
80624;BME280;70269;44.768;9.600;2024-03-22T06:44:58;97942.06;;;9.74;79.60
80624;BME280;70269;44.768;9.600;2024-03-22T06:47:24;97935.63;;;9.75;78.84
80624;BME280;70269;44.768;9.600;2024-03-22T06:49:49;97935.13;;;10.21;77.20
80624;BME280;70269;44.768;9.600;2024-03-22T06:52:15;97933.66;;;10.53;75.45
80624;BME280;70269;44.768;9.600;2024-03-22T06:54:41;97928.88;;;10.62;74.65
80624;BME280;70269;44.768;9.600;2024-03-22T06:57:07;97940.13;;;10.65;72.91
80624;BME280;70269;44.768;9.600;2024-03-22T06:59:32;97930.28;;;10.44;75.14
80624;BME280;70269;44.768;9.600;2024-03-22T07:01:58;97928.81;;;10.42;75.16
80624;BME280;70269;44.768;9.600;2024-03-22T07:04:24;97928.00;;;10.41;75.07
80624;BME280;70269;44.768;9.600;2024-03-22T07:06:49;97934.03;;;10.50;74.94
80624;BME280;70269;44.768;9.600;2024-03-22T07:09:15;97930.75;;;10.54;76.75
80624;BME280;70269;44.768;9.600;2024-03-22T07:11:41;97928.50;;;10.65;75.63
80624;BME280;70269;44.768;9.600;2024-03-22T07:14:07;97934.53;;;10.67;73.18
80624;BME280;70269;44.768;9.600;2024-03-22T07:16:33;97938.50;;;10.71;72.95
80624;BME280;70269;44.768;9.600;2024-03-22T07:18:59;97933.41;;;11.02;74.39
80624;BME280;70269;44.768;9.600;2024-03-22T07:21:24;97935.31;;;11.21;75.05
80624;BME280;70269;44.768;9.600;2024-03-22T07:23:50;97930.34;;;11.45;74.51
80624;BME280;70269;44.768;9.600;2024-03-22T07:26:16;97929.31;;;11.46;73.88
80624;BME280;70269;44.768;9.600;2024-03-22T07:28:41;97933.25;;;11.36;72.86
80624;BME280;70269;44.768;9.600;2024-03-22T07:31:07;97938.06;;;11.41;72.85
80624;BME280;70269;44.768;9.600;2024-03-22T07:33:33;97934.94;;;11.64;71.65
80624;BME280;70269;44.768;9.600;2024-03-22T07:36:03;97933.91;;;11.98;72.89
80624;BME280;70269;44.768;9.600;2024-03-22T07:38:28;97934.50;;;12.20;72.38
80624;BME280;70269;44.768;9.600;2024-03-22T07:40:54;97941.13;;;12.37;72.56
80624;BME280;70269;44.768;9.600;2024-03-22T07:43:20;97932.97;;;12.43;72.36
80624;BME280;70269;44.768;9.600;2024-03-22T07:45:45;97927.88;;;12.67;73.46
80624;BME280;70269;44.768;9.600;2024-03-22T07:48:11;97942.09;;;12.62;73.00
80624;BME280;70269;44.768;9.600;2024-03-22T07:50:37;97931.75;;;12.84;71.48
80624;BME280;70269;44.768;9.600;2024-03-22T07:53:02;97937.94;;;13.04;69.71
80624;BME280;70269;44.768;9.600;2024-03-22T07:55:28;97935.56;;;13.21;69.32
80624;BME280;70269;44.768;9.600;2024-03-22T07:57:54;97932.84;;;13.21;70.50
80624;BME280;70269;44.768;9.600;2024-03-22T08:00:20;97940.34;;;13.25;70.76
80624;BME280;70269;44.768;9.600;2024-03-22T08:02:45;97931.34;;;13.31;68.79
80624;BME280;70269;44.768;9.600;2024-03-22T08:05:11;97941.44;;;13.18;69.87
80624;BME280;70269;44.768;9.600;2024-03-22T08:07:36;97930.06;;;13.34;69.42
80624;BME280;70269;44.768;9.600;2024-03-22T08:10:02;97938.41;;;13.39;68.15
80624;BME280;70269;44.768;9.600;2024-03-22T08:12:29;97929.78;;;13.73;69.41
80624;BME280;70269;44.768;9.600;2024-03-22T08:14:55;97935.53;;;13.84;68.28
80624;BME280;70269;44.768;9.600;2024-03-22T08:17:21;97932.00;;;14.01;69.86
80624;BME280;70269;44.768;9.600;2024-03-22T08:19:46;97924.56;;;13.72;65.15
80624;BME280;70269;44.768;9.600;2024-03-22T08:22:12;97928.09;;;13.72;67.55
80624;BME280;70269;44.768;9.600;2024-03-22T08:24:39;97922.50;;;13.67;65.05
80624;BME280;70269;44.768;9.600;2024-03-22T08:27:05;97924.59;;;13.90;67.13
80624;BME280;70269;44.768;9.600;2024-03-22T08:29:31;97917.50;;;13.89;68.19
80624;BME280;70269;44.768;9.600;2024-03-22T08:31:56;97908.81;;;13.81;65.66
80624;BME280;70269;44.768;9.600;2024-03-22T08:34:22;97908.81;;;13.81;66.47
80624;BME280;70269;44.768;9.600;2024-03-22T08:36:48;97903.63;;;13.79;67.03
80624;BME280;70269;44.768;9.600;2024-03-22T08:39:14;97916.63;;;13.95;67.61
80624;BME280;70269;44.768;9.600;2024-03-22T08:41:40;97906.25;;;14.10;70.78
80624;BME280;70269;44.768;9.600;2024-03-22T08:44:06;97912.28;;;14.12;67.71
80624;BME280;70269;44.768;9.600;2024-03-22T08:46:32;97907.16;;;14.23;67.63
80624;BME280;70269;44.768;9.600;2024-03-22T08:48:58;97905.13;;;14.18;67.88
80624;BME280;70269;44.768;9.600;2024-03-22T08:51:24;97905.00;;;14.31;70.09
80624;BME280;70269;44.768;9.600;2024-03-22T08:53:50;97906.81;;;14.74;73.19
80624;BME280;70269;44.768;9.600;2024-03-22T08:56:15;97896.09;;;14.61;70.38
80624;BME280;70269;44.768;9.600;2024-03-22T08:58:41;97903.34;;;14.67;70.25
80624;BME280;70269;44.768;9.600;2024-03-22T09:01:07;97901.69;;;14.47;71.38
80624;BME280;70269;44.768;9.600;2024-03-22T09:03:36;97901.44;;;14.85;72.27
80624;BME280;70269;44.768;9.600;2024-03-22T09:06:02;97899.25;;;15.35;73.34
80624;BME280;70269;44.768;9.600;2024-03-22T09:08:28;97897.28;;;15.43;72.07
80624;BME280;70269;44.768;9.600;2024-03-22T09:10:55;97889.78;;;15.38;73.20
80624;BME280;70269;44.768;9.600;2024-03-22T09:13:20;97900.50;;;15.63;69.35
80624;BME280;70269;44.768;9.600;2024-03-22T09:15:46;97905.28;;;15.79;70.36
80624;BME280;70269;44.768;9.600;2024-03-22T09:18:11;97890.97;;;16.07;71.68
80624;BME280;70269;44.768;9.600;2024-03-22T09:20:37;97888.72;;;16.15;70.05
80624;BME280;70269;44.768;9.600;2024-03-22T09:23:03;97885.69;;;16.52;65.58
80624;BME280;70269;44.768;9.600;2024-03-22T09:25:29;97891.63;;;16.49;66.36
80624;BME280;70269;44.768;9.600;2024-03-22T09:27:55;97887.63;;;16.40;66.63
80624;BME280;70269;44.768;9.600;2024-03-22T09:30:20;97891.31;;;16.34;69.09
80624;BME280;70269;44.768;9.600;2024-03-22T09:32:47;97883.59;;;16.31;67.22
80624;BME280;70269;44.768;9.600;2024-03-22T09:35:13;97890.25;;;16.35;67.04
80624;BME280;70269;44.768;9.600;2024-03-22T09:37:43;97888.69;;;16.39;70.29
80624;BME280;70269;44.768;9.600;2024-03-22T09:40:09;97884.75;;;16.46;68.60
80624;BME280;70269;44.768;9.600;2024-03-22T09:42:38;97882.63;;;16.37;66.69
80624;BME280;70269;44.768;9.600;2024-03-22T09:45:09;97886.78;;;16.39;67.94
80624;BME280;70269;44.768;9.600;2024-03-22T09:47:36;97886.78;;;16.39;65.27
80624;BME280;70269;44.768;9.600;2024-03-22T09:50:06;97881.94;;;16.30;68.51
80624;BME280;70269;44.768;9.600;2024-03-22T09:52:33;97883.91;;;16.57;66.40
80624;BME280;70269;44.768;9.600;2024-03-22T09:54:59;97891.31;;;16.34;66.93
80624;BME280;70269;44.768;9.600;2024-03-22T09:57:25;97885.59;;;16.47;67.95
80624;BME280;70269;44.768;9.600;2024-03-22T09:59:52;97878.25;;;16.47;67.30
80624;BME280;70269;44.768;9.600;2024-03-22T10:02:18;97885.59;;;16.47;67.96
80624;BME280;70269;44.768;9.600;2024-03-22T10:04:44;97886.41;;;16.71;68.23
80624;BME280;70269;44.768;9.600;2024-03-22T10:07:10;97872.56;;;16.37;66.24
80624;BME280;70269;44.768;9.600;2024-03-22T10:09:36;97869.00;;;16.60;68.21
80624;BME280;70269;44.768;9.600;2024-03-22T10:12:03;97877.84;;;16.67;64.87
80624;BME280;70269;44.768;9.600;2024-03-22T10:14:29;97873.50;;;16.66;67.01
80624;BME280;70269;44.768;9.600;2024-03-22T10:16:56;97865.97;;;16.85;67.44
80624;BME280;70269;44.768;9.600;2024-03-22T10:19:23;97873.00;;;16.97;66.40
80624;BME280;70269;44.768;9.600;2024-03-22T10:24:28;97862.25;;;16.91;65.73
80624;BME280;70269;44.768;9.600;2024-03-22T10:26:54;97858.00;;;16.83;66.89
80624;BME280;70269;44.768;9.600;2024-03-22T10:29:20;97856.03;;;16.67;67.76
80624;BME280;70269;44.768;9.600;2024-03-22T10:31:48;97858.38;;;16.75;69.35
80624;BME280;70269;44.768;9.600;2024-03-22T10:34:16;97861.81;;;16.82;67.31
80624;BME280;70269;44.768;9.600;2024-03-22T10:36:46;97855.81;;;16.57;67.56
80624;BME280;70269;44.768;9.600;2024-03-22T10:39:14;97852.94;;;16.75;67.12
80624;BME280;70269;44.768;9.600;2024-03-22T10:41:40;97852.47;;;16.78;67.38
80624;BME280;70269;44.768;9.600;2024-03-22T10:44:09;97846.50;;;16.81;66.51
80624;BME280;70269;44.768;9.600;2024-03-22T10:46:35;97846.31;;;16.71;66.69
80624;BME280;70269;44.768;9.600;2024-03-22T10:49:02;97842.66;;;16.66;65.82
80624;BME280;70269;44.768;9.600;2024-03-22T10:51:30;97848.94;;;16.66;67.86
80624;BME280;70269;44.768;9.600;2024-03-22T10:53:57;97840.41;;;16.51;67.52
80624;BME280;70269;44.768;9.600;2024-03-22T10:56:25;97841.38;;;16.45;67.17
80624;BME280;70269;44.768;9.600;2024-03-22T10:58:52;97836.84;;;16.50;67.37
80624;BME280;70269;44.768;9.600;2024-03-22T11:01:27;97833.06;;;16.63;67.10
80624;BME280;70269;44.768;9.600;2024-03-22T11:04:08;97836.41;;;16.82;65.99
80624;BME280;70269;44.768;9.600;2024-03-22T11:06:39;97827.06;;;16.78;67.60
80624;BME280;70269;44.768;9.600;2024-03-22T11:09:04;97820.78;;;16.77;67.63
80624;BME280;70269;44.768;9.600;2024-03-22T11:11:31;97817.31;;;16.82;65.93
80624;BME280;70269;44.768;9.600;2024-03-22T11:14:03;97815.75;;;16.86;65.04
80624;BME280;70269;44.768;9.600;2024-03-22T11:16:29;97831.09;;;16.75;66.39
80624;BME280;70269;44.768;9.600;2024-03-22T11:18:55;97811.41;;;16.85;67.31
80624;BME280;70269;44.768;9.600;2024-03-22T11:21:21;97812.88;;;16.92;66.41
80624;BME280;70269;44.768;9.600;2024-03-22T11:23:47;97815.84;;;17.19;67.97
80624;BME280;70269;44.768;9.600;2024-03-22T11:26:13;97815.81;;;17.03;64.71
80624;BME280;70269;44.768;9.600;2024-03-22T11:28:39;97816.59;;;16.86;65.18
80624;BME280;70269;44.768;9.600;2024-03-22T11:31:05;97807.22;;;16.66;65.36
80624;BME280;70269;44.768;9.600;2024-03-22T11:33:31;97803.59;;;16.77;65.48
80624;BME280;70269;44.768;9.600;2024-03-22T11:36:01;97799.88;;;16.83;66.79
80624;BME280;70269;44.768;9.600;2024-03-22T11:38:27;97786.34;;;17.05;64.75
80624;BME280;70269;44.768;9.600;2024-03-22T11:40:54;97790.22;;;16.92;65.48
80624;BME280;70269;44.768;9.600;2024-03-22T11:43:21;97790.63;;;16.84;68.62
80624;BME280;70269;44.768;9.600;2024-03-22T11:45:47;97787.25;;;16.93;66.42
80624;BME280;70269;44.768;9.600;2024-03-22T11:48:13;97779.06;;;16.93;65.41
80624;BME280;70269;44.768;9.600;2024-03-22T11:50:39;97777.91;;;16.89;64.97
80624;BME280;70269;44.768;9.600;2024-03-22T11:53:05;97786.78;;;16.96;67.21
80624;BME280;70269;44.768;9.600;2024-03-22T11:55:31;97776.88;;;16.79;65.83
80624;BME280;70269;44.768;9.600;2024-03-22T11:57:58;97774.69;;;16.92;65.72
80624;BME280;70269;44.768;9.600;2024-03-22T12:00:24;97775.03;;;17.13;66.83
80624;BME280;70269;44.768;9.600;2024-03-22T12:02:51;97756.94;;;17.07;65.57
80624;BME280;70269;44.768;9.600;2024-03-22T12:05:23;97749.88;;;17.11;65.25
80624;BME280;70269;44.768;9.600;2024-03-22T12:07:51;97743.78;;;17.20;68.68
80624;BME280;70269;44.768;9.600;2024-03-22T12:10:18;97748.16;;;17.05;65.64
80624;BME280;70269;44.768;9.600;2024-03-22T12:12:43;97742.88;;;17.15;65.77
80624;BME280;70269;44.768;9.600;2024-03-22T12:15:09;97739.72;;;16.89;66.19
80624;BME280;70269;44.768;9.600;2024-03-22T12:17:35;97740.03;;;16.93;66.36
80624;BME280;70269;44.768;9.600;2024-03-22T12:20:03;97733.91;;;16.86;65.09
80624;BME280;70269;44.768;9.600;2024-03-22T12:22:30;97732.09;;;16.91;65.96
80624;BME280;70269;44.768;9.600;2024-03-22T12:24:56;97732.09;;;16.91;65.52
80624;BME280;70269;44.768;9.600;2024-03-22T12:27:21;97728.66;;;16.96;65.44
80624;BME280;70269;44.768;9.600;2024-03-22T12:29:48;97733.34;;;16.84;64.92
80624;BME280;70269;44.768;9.600;2024-03-22T12:32:14;97726.91;;;16.90;65.31
80624;BME280;70269;44.768;9.600;2024-03-22T12:34:40;97725.00;;;16.90;64.94
80624;BME280;70269;44.768;9.600;2024-03-22T12:37:05;97722.53;;;16.89;65.67
80624;BME280;70269;44.768;9.600;2024-03-22T12:39:31;97722.19;;;17.02;65.96
80624;BME280;70269;44.768;9.600;2024-03-22T12:41:57;97723.66;;;17.10;66.44
80624;BME280;70269;44.768;9.600;2024-03-22T12:44:23;97718.22;;;17.10;64.68
80624;BME280;70269;44.768;9.600;2024-03-22T12:46:49;97712.75;;;16.93;65.79
80624;BME280;70269;44.768;9.600;2024-03-22T12:49:17;97718.19;;;16.76;66.17
80624;BME280;70269;44.768;9.600;2024-03-22T12:51:42;97717.13;;;16.77;67.15
80624;BME280;70269;44.768;9.600;2024-03-22T12:54:09;97719.50;;;16.74;65.12
80624;BME280;70269;44.768;9.600;2024-03-22T12:56:35;97706.06;;;16.84;66.23
80624;BME280;70269;44.768;9.600;2024-03-22T12:59:02;97701.19;;;17.03;65.68
80624;BME280;70269;44.768;9.600;2024-03-22T13:01:28;97706.91;;;16.84;65.25